Oberon — SKJF — position and weather

sailwx.info

Track history (hours):
 
Tides and Currents Weather Stations Pressure Air Temp Water Temp Dewpoint Dewpoint Depression Visibility Wind Speed Wind Dir Waves Ship Positions

Oberon

Last reported at 2017-Jun-23 11:28 UTC. Time now 2017-Jun-23 11:51 UTC.
Position N 52°18' E 003°08'.

Length 232 m; draft 8.6 m.

Type: Cargo ship. MMSI: 266283000.

Date/timePositionNaut miles runAvg speedWind from/ knotsBaromVisibWave heightAir tempDewpointWater temp
2017-Jun-23 11:28N 52°18' E 003°08'510.8
2017-Jun-23 11:00N 52°22' E 003°13'510.4
2017-Jun-23 10:30N 52°27' E 003°18'510.7
2017-Jun-23 10:00N 52°31' E 003°23'611.0
2017-Jun-23 09:30N 52°35' E 003°28'611.1
2017-Jun-23 09:00N 52°40' E 003°34'611.3
2017-Jun-23 08:30N 52°44' E 003°40'510.6
2017-Jun-23 08:00N 52°48' E 003°46'5 9.5
2017-Jun-23 07:30N 52°52' E 003°51'5 9.3
2017-Jun-23 07:00N 52°55' E 003°56'510.2
2017-Jun-23 06:30N 52°59' E 004°02'713.3
2017-Jun-23 06:00N 53°03' E 004°10'612.9
2017-Jun-23 05:30N 53°08' E 004°18'612.4
2017-Jun-23 05:00N 53°12' E 004°25'612.4
2017-Jun-23 04:30N 53°18' E 004°29'912.4
2017-Jun-23 03:47N 53°26' E 004°34'412.3
2017-Jun-23 03:27N 53°30' E 004°36'3713.4
2017-Jun-23 00:40N 54°05' E 004°60'2813.7
2017-Jun-22 22:37N 54°29' E 005°24'213.5
2017-Jun-22 22:29N 54°30' E 005°26'713.5
2017-Jun-22 22:00N 54°36' E 005°31'713.5
2017-Jun-22 21:29N 54°42' E 005°37'613.5
2017-Jun-22 21:00N 54°48' E 005°43'713.5
2017-Jun-22 20:30N 54°54' E 005°48'713.5
2017-Jun-22 20:00N 54°59' E 005°54'713.3
2017-Jun-22 19:30N 55°05' E 005°60'713.3
2017-Jun-22 18:59N 55°11' E 006°05'713.0
2017-Jun-22 18:29N 55°17' E 006°11'713.2
2017-Jun-22 17:59N 55°23' E 006°17'713.1
2017-Jun-22 17:29N 55°28' E 006°23'613.1
2017-Jun-22 17:00N 55°34' E 006°28'713.1
2017-Jun-22 16:30N 55°40' E 006°33'713.0
2017-Jun-22 16:00N 55°46' E 006°38'713.0
2017-Jun-22 15:29N 55°51' E 006°45'612.8
2017-Jun-22 14:59N 55°57' E 006°51'1312.8
2017-Jun-22 14:00N 56°08' E 007°02'613.2
2017-Jun-22 13:30N 56°13' E 007°07'713.2
2017-Jun-22 13:00N 56°19' E 007°13'713.2
2017-Jun-22 12:29N 56°25' E 007°19'713.2
2017-Jun-22 11:59N 56°31' E 007°25'713.5
2017-Jun-22 11:29N 56°37' E 007°31'713.7
2017-Jun-22 10:58N 56°43' E 007°37'713.8
2017-Jun-22 10:29N 56°49' E 007°43'5814.4
2017-Jun-22 06:25N 57°33' E 008°53'715.0
2017-Jun-22 05:59N 57°35' E 009°04'714.6
2017-Jun-22 05:30N 57°39' E 009°16'714.6
2017-Jun-22 05:00N 57°43' E 009°27'914.6
2017-Jun-22 04:25N 57°46' E 009°42'714.8
2017-Jun-22 03:58N 57°48' E 009°54'714.5
2017-Jun-22 03:29N 57°50' E 010°07'714.0
2017-Jun-22 03:00N 57°50' E 010°20'713.8
2017-Jun-22 02:30N 57°50' E 010°32'713.0
2017-Jun-22 01:59N 57°48' E 010°45'714.0
2017-Jun-22 01:29N 57°44' E 010°55'714.7
2017-Jun-22 01:00N 57°39' E 011°04'714.6
2017-Jun-22 00:30N 57°34' E 011°15'714.6
2017-Jun-22 00:00N 57°29' E 011°25'714.4
2017-Jun-21 23:30N 57°23' E 011°31'715.0
2017-Jun-21 23:00N 57°16' E 011°36'815.1
2017-Jun-21 22:28N 57°08' E 011°41'714.8
2017-Jun-21 21:59N 57°01' E 011°45'1315.2
2017-Jun-21 21:09N 56°49' E 011°51'514.6
2017-Jun-21 20:47N 56°44' E 011°54'514.3
2017-Jun-21 20:26N 56°39' E 011°57'614.5
2017-Jun-21 19:59N 56°33' E 012°00'914.7
2017-Jun-21 19:24N 56°25' E 012°03'614.3
2017-Jun-21 19:00N 56°19' E 012°06'815.1
2017-Jun-21 18:30N 56°14' E 012°16'815.8
2017-Jun-21 18:00N 56°09' E 012°27'917.2
2017-Jun-21 17:30N 56°04' E 012°39'815.2
2017-Jun-21 17:00N 55°57' E 012°44'816.3
2017-Jun-21 16:31N 55°49' E 012°47'815.9
2017-Jun-21 16:00N 55°42' E 012°54'510.9
2017-Jun-21 15:30N 55°37' E 012°59'0 0.7
2017-Jun-21 15:00N 55°37' E 012°60'0 0.0
2017-Jun-21 13:59N 55°37' E 012°60'0 0.0
2017-Jun-21 13:29N 55°37' E 012°60'0 0.0
2017-Jun-21 12:59N 55°37' E 012°60'0 0.0
2017-Jun-21 12:29N 55°37' E 012°60'0 0.0
2017-Jun-21 11:59N 55°37' E 012°60'0 0.0
2017-Jun-21 11:29N 55°37' E 012°60'0 0.0
2017-Jun-21 10:59N 55°37' E 012°60'0 0.0
2017-Jun-21 10:29N 55°37' E 012°60'0 0.0
2017-Jun-21 09:59N 55°37' E 012°60'0 0.0
2017-Jun-21 09:29N 55°37' E 012°60'0 0.0
2017-Jun-21 08:59N 55°37' E 012°60'0 0.0
2017-Jun-21 08:29N 55°37' E 012°60'0 0.0
2017-Jun-21 07:59N 55°37' E 012°60'0 0.0
2017-Jun-21 07:29N 55°37' E 012°60'0 0.0
2017-Jun-21 06:59N 55°37' E 012°60'0 0.0
2017-Jun-21 06:29N 55°37' E 012°60'0 0.0
2017-Jun-21 05:59N 55°37' E 012°60'0 0.0
2017-Jun-21 05:29N 55°37' E 012°60'0 0.0
2017-Jun-21 04:59N 55°37' E 012°60'0 0.0
2017-Jun-21 04:29N 55°37' E 012°60'0 0.0
2017-Jun-21 03:59N 55°37' E 012°60'0 0.0
2017-Jun-21 03:29N 55°37' E 012°60'0 0.0
2017-Jun-21 02:59N 55°37' E 012°60'0 0.0
2017-Jun-21 02:29N 55°37' E 012°60'0 0.0
2017-Jun-21 01:59N 55°37' E 012°60'0 0.0
2017-Jun-21 01:29N 55°37' E 012°60'0 0.0
2017-Jun-21 00:59N 55°37' E 012°60'0 0.0
2017-Jun-21 00:29N 55°37' E 012°60'0 0.0
2017-Jun-20 23:59N 55°37' E 012°60'0 0.0
2017-Jun-20 23:29N 55°37' E 012°60'0 0.0
2017-Jun-20 22:59N 55°37' E 012°60'0 0.0
2017-Jun-20 22:29N 55°37' E 012°60'0 0.0
2017-Jun-20 21:59N 55°37' E 012°60'0 0.0
2017-Jun-20 21:29N 55°37' E 012°60'0 0.0
2017-Jun-20 20:59N 55°37' E 012°60'0 0.0
2017-Jun-20 20:29N 55°37' E 012°60'0 0.0
2017-Jun-20 19:59N 55°37' E 012°60'0 0.0
2017-Jun-20 19:29N 55°37' E 012°60'0 0.0
2017-Jun-20 18:59N 55°37' E 012°60'0 0.0
2017-Jun-20 18:29N 55°37' E 012°60'0 0.0
2017-Jun-20 17:59N 55°37' E 012°60'0 0.0
2017-Jun-20 17:29N 55°37' E 012°60'0 0.0
2017-Jun-20 16:59N 55°37' E 012°60'0 0.0
2017-Jun-20 16:29N 55°37' E 012°60'0 0.0
2017-Jun-20 15:59N 55°37' E 012°60'0 0.0
2017-Jun-20 15:29N 55°37' E 012°60'0 0.0
2017-Jun-20 14:59N 55°37' E 012°60'0 0.0
2017-Jun-20 14:29N 55°37' E 012°60'0 0.0
2017-Jun-20 13:29N 55°37' E 012°60'0 0.0
2017-Jun-20 12:59N 55°37' E 012°60'0 0.0
2017-Jun-20 12:30N 55°37' E 012°60'2 3.8
2017-Jun-20 12:00N 55°39' E 012°57'510.9
2017-Jun-20 11:30N 55°44' E 012°53'713.1
2017-Jun-20 11:00N 55°49' E 012°46'714.2
2017-Jun-20 10:30N 55°54' E 012°39'815.6
2017-Jun-20 10:00N 56°02' E 012°39'816.7
2017-Jun-20 09:30N 56°08' E 012°28'917.3
2017-Jun-20 09:00N 56°13' E 012°15'817.0
2017-Jun-20 08:30N 56°18' E 012°03'917.8
2017-Jun-20 08:00N 56°27' E 011°60'2117.8
2017-Jun-20 06:49N 56°47' E 011°50'717.4
2017-Jun-20 06:27N 56°53' E 011°46'613.8
2017-Jun-20 05:59N 56°60' E 011°48'6 4.0
2017-Jun-20 04:34N 57°04' E 011°40'119.4
2017-Jun-20 04:30N 57°05' E 011°39'917.5
2017-Jun-20 04:00N 57°13' E 011°34'714.5
2017-Jun-20 03:30N 57°20' E 011°29'714.4
2017-Jun-20 03:00N 57°26' E 011°23'612.4
2017-Jun-20 02:30N 57°31' E 011°15'714.5
2017-Jun-20 02:00N 57°35' E 011°05'714.7
2017-Jun-20 01:30N 57°40' E 010°55'814.7
2017-Jun-20 00:58N 57°47' E 010°46'713.8
2017-Jun-20 00:29N 57°48' E 010°33'714.7
2017-Jun-20 00:00N 57°48' E 010°20'815.5
2017-Jun-19 23:29N 57°46' E 010°05'715.4
2017-Jun-19 23:00N 57°44' E 009°52'815.5
2017-Jun-19 22:29N 57°42' E 009°38'715.3
2017-Jun-19 22:00N 57°39' E 009°25'815.5
2017-Jun-19 21:30N 57°37' E 009°11'815.4
2017-Jun-19 20:57N 57°33' E 008°57'1515.1
2017-Jun-19 19:58N 57°25' E 008°34'715.0
2017-Jun-19 19:30N 57°21' E 008°23'814.8
2017-Jun-19 18:59N 57°16' E 008°12'6514.6
2017-Jun-19 14:31N 56°19' E 007°15'2014.9
2017-Jun-19 13:09N 56°01' E 006°57'514.9
2017-Jun-19 12:49N 55°57' E 006°53'514.8
2017-Jun-19 12:29N 55°52' E 006°48'714.8
2017-Jun-19 12:01N 55°46' E 006°42'714.7
2017-Jun-19 11:31N 55°40' E 006°37'714.7
2017-Jun-19 11:00N 55°33' E 006°31'714.7
2017-Jun-19 10:31N 55°27' E 006°25'815.0
2017-Jun-19 09:59N 55°20' E 006°19'714.8
2017-Jun-19 09:29N 55°13' E 006°12'714.7
2017-Jun-19 09:00N 55°07' E 006°05'814.8
2017-Jun-19 08:30N 55°01' E 005°59'814.8
2017-Jun-19 07:59N 54°54' E 005°53'714.7
2017-Jun-19 07:30N 54°48' E 005°47'4513.5
2017-Jun-19 04:11N 54°08' E 005°10'517.4
2017-Jun-19 03:52N 54°04' E 005°07'3517.4
2017-Jun-19 01:53N 53°31' E 004°46'717.9
2017-Jun-19 01:30N 53°25' E 004°41'918.2
2017-Jun-19 01:00N 53°17' E 004°35'918.5
2017-Jun-19 00:30N 53°08' E 004°28'918.2
2017-Jun-19 00:00N 53°01' E 004°21'918.3
2017-Jun-18 23:30N 52°53' E 004°13'917.9
2017-Jun-18 23:00N 52°45' E 004°05'917.8
2017-Jun-18 22:30N 52°39' E 003°55'917.8
2017-Jun-18 22:00N 52°32' E 003°45'917.9
2017-Jun-18 21:30N 52°26' E 003°35'918.1
2017-Jun-18 21:00N 52°19' E 003°24'918.2
2017-Jun-18 20:30N 52°12' E 003°14'1018.2
2017-Jun-18 19:56N 52°05' E 003°03'918.1
2017-Jun-18 19:28N 51°58' E 002°54'817.9
2017-Jun-18 19:00N 51°51' E 002°47'917.8
2017-Jun-18 18:30N 51°43' E 002°41'816.5
2017-Jun-18 18:00N 51°35' E 002°43'713.4
2017-Jun-18 17:30N 51°29' E 002°42'5 9.3
2017-Jun-18 17:00N 51°24' E 002°44'815.8
2017-Jun-18 16:30N 51°25' E 002°57'816.6
2017-Jun-18 16:00N 51°23' E 003°10'4 7.3
2017-Jun-18 15:31N 51°20' E 003°13'0 0.0
2017-Jun-18 15:00N 51°20' E 003°13'2 2.1
2017-Jun-18 14:00N 51°18' E 003°14'0 0.0
2017-Jun-18 13:29N 51°18' E 003°14'0 0.0
2017-Jun-18 12:59N 51°18' E 003°14'0 0.0
2017-Jun-18 12:29N 51°18' E 003°14'0 0.0
2017-Jun-18 11:59N 51°18' E 003°14'0 0.0
2017-Jun-18 11:29N 51°18' E 003°14'0 0.0
2017-Jun-18 10:59N 51°18' E 003°14'0 0.0
2017-Jun-18 10:29N 51°18' E 003°14'0 0.0
2017-Jun-18 09:59N 51°18' E 003°14'0 0.0
2017-Jun-18 09:29N 51°18' E 003°14'0 0.0
2017-Jun-18 08:59N 51°18' E 003°14'0 0.0
2017-Jun-18 08:29N 51°18' E 003°14'0 0.0
2017-Jun-18 07:59N 51°18' E 003°14'0 0.0
2017-Jun-18 07:29N 51°18' E 003°14'0 0.0
2017-Jun-18 06:59N 51°18' E 003°14'0 0.0
2017-Jun-18 06:29N 51°18' E 003°14'0 0.0
2017-Jun-18 05:59N 51°18' E 003°14'0 0.0
2017-Jun-18 05:29N 51°18' E 003°14'0 0.0
2017-Jun-18 04:59N 51°18' E 003°14'0 0.0
2017-Jun-18 04:29N 51°18' E 003°14'0 0.0
2017-Jun-18 03:59N 51°18' E 003°14'0 0.0
2017-Jun-18 03:29N 51°18' E 003°14'0 0.0
2017-Jun-18 02:59N 51°18' E 003°14'0 0.0
2017-Jun-18 02:30N 51°18' E 003°14'1 2.3
2017-Jun-18 02:00N 51°19' E 003°13'1 2.0
2017-Jun-18 01:30N 51°20' E 003°13'0 0.0
2017-Jun-18 01:00N 51°20' E 003°13'1 2.3
2017-Jun-18 00:30N 51°21' E 003°12'3 5.6
2017-Jun-18 00:00N 51°23' E 003°09'3 6.6
2017-Jun-17 23:30N 51°24' E 003°04'5 9.1
2017-Jun-17 23:00N 51°23' E 002°57'815.1
2017-Jun-17 22:30N 51°22' E 002°45'713.4
2017-Jun-17 22:01N 51°22' E 002°35'4 7.5
2017-Jun-17 21:30N 51°22' E 002°29'1 2.8
2017-Jun-17 21:00N 51°21' E 002°27'2 4.1
2017-Jun-17 20:30N 51°20' E 002°24'1 2.8
2017-Jun-17 20:00N 51°20' E 002°22'2 4.4
2017-Jun-17 19:31N 51°18' E 002°19'3 6.9
2017-Jun-17 19:00N 51°16' E 002°15'4 7.0
2017-Jun-17 18:30N 51°14' E 002°10'3 7.0
2017-Jun-17 18:00N 51°12' E 002°05'3 6.6
2017-Jun-17 17:30N 51°11' E 002°01'3 6.7
2017-Jun-17 17:00N 51°09' E 001°56'3 6.7
2017-Jun-17 16:30N 51°08' E 001°51'4 7.3
2017-Jun-17 16:00N 51°06' E 001°46'714.7
2017-Jun-17 15:30N 51°01' E 001°38'816.6
2017-Jun-17 15:01N 50°55' E 001°28'815.6
2017-Jun-17 14:30N 50°48' E 001°24'3015.8
2017-Jun-17 12:37N 50°28' E 000°49'216.8
2017-Jun-17 12:30N 50°27' E 000°46'816.8
2017-Jun-17 12:00N 50°25' E 000°34'816.7
2017-Jun-17 11:30N 50°22' E 000°21'816.5
2017-Jun-17 11:00N 50°20' E 000°09'816.1
2017-Jun-17 10:30N 50°18' W 000°04'815.9
2017-Jun-17 10:01N 50°16' W 000°16'815.6
2017-Jun-17 09:30N 50°15' W 000°27'815.3
2017-Jun-17 09:01N 50°13' W 000°39'715.0
2017-Jun-17 08:30N 50°11' W 000°50'714.6
2017-Jun-17 08:01N 50°10' W 001°02'714.3
2017-Jun-17 07:31N 50°08' W 001°12'714.1
2017-Jun-17 07:00N 50°06' W 001°23'714.0
2017-Jun-17 06:31N 50°05' W 001°34'713.8
2017-Jun-17 06:01N 50°03' W 001°44'713.8
2017-Jun-17 05:30N 50°02' W 001°55'714.3
2017-Jun-17 05:00N 49°59' W 002°05'714.9
2017-Jun-17 04:30N 49°57' W 002°16'815.4
2017-Jun-17 04:00N 49°55' W 002°28'815.9
2017-Jun-17 03:29N 49°51' W 002°39'816.1
2017-Jun-17 03:00N 49°49' W 002°50'816.1
2017-Jun-17 02:30N 49°49' W 003°03'816.4
2017-Jun-17 02:00N 49°49' W 003°16'816.4
2017-Jun-17 01:30N 49°49' W 003°28'816.5
2017-Jun-17 01:00N 49°50' W 003°41'816.6
2017-Jun-17 00:30N 49°50' W 003°54'816.6
2017-Jun-17 00:00N 49°50' W 004°07'816.7
2017-Jun-16 23:30N 49°51' W 004°20'816.7
2017-Jun-16 23:00N 49°51' W 004°33'816.8
2017-Jun-16 22:30N 49°51' W 004°46'816.7
2017-Jun-16 22:00N 49°51' W 004°59'816.7
2017-Jun-16 21:30N 49°52' W 005°12'816.7
2017-Jun-16 21:00N 49°52' W 005°24'816.5
2017-Jun-16 20:30N 49°52' W 005°37'816.2
2017-Jun-16 20:00N 49°54' W 005°50'714.3
2017-Jun-16 19:30N 49°56' W 006°00'815.4
2017-Jun-16 19:00N 50°04' W 006°00'815.3
2017-Jun-16 18:30N 50°12' W 006°00'815.5
2017-Jun-16 18:00N 50°19' W 006°00'714.1
2017-Jun-16 17:30N 50°25' W 005°54'815.2
2017-Jun-16 17:00N 50°30' W 005°45'815.5
2017-Jun-16 16:30N 50°35' W 005°35'815.6
2017-Jun-16 16:00N 50°40' W 005°26'815.7
2017-Jun-16 15:30N 50°45' W 005°16'815.8
2017-Jun-16 15:00N 50°50' W 005°07'816.0
2017-Jun-16 14:30N 50°55' W 004°57'1616.1
2017-Jun-16 13:30N 51°05' W 004°37'816.8
2017-Jun-16 13:00N 51°11' W 004°27'917.1
2017-Jun-16 12:30N 51°16' W 004°16'3515.7
2017-Jun-16 10:15N 51°20' W 003°20'413.9
2017-Jun-16 09:59N 51°21' W 003°14'4 9.5
2017-Jun-16 09:30N 51°22' W 003°07'713.7
2017-Jun-16 09:01N 51°27' W 002°60'713.7
2017-Jun-16 08:30N 51°29' W 002°49'4 7.4
2017-Jun-16 08:00N 51°30' W 002°44'0 0.0
2017-Jun-16 07:30N 51°30' W 002°44'0 0.9
2017-Jun-16 07:00N 51°30' W 002°43'0 0.0
2017-Jun-16 06:30N 51°30' W 002°43'0 0.0
2017-Jun-16 06:00N 51°30' W 002°43'0 0.0
2017-Jun-16 05:31N 51°30' W 002°43'0 0.0
2017-Jun-16 05:01N 51°30' W 002°43'0 0.0
2017-Jun-16 04:31N 51°30' W 002°43'0 0.0
2017-Jun-16 04:01N 51°30' W 002°43'0 0.0
2017-Jun-16 03:31N 51°30' W 002°43'0 0.0
2017-Jun-16 03:01N 51°30' W 002°43'0 0.0
2017-Jun-16 02:31N 51°30' W 002°43'0 0.0
2017-Jun-16 02:01N 51°30' W 002°43'0 0.0
2017-Jun-16 01:31N 51°30' W 002°43'0 0.0
2017-Jun-16 01:01N 51°30' W 002°43'0 0.0
2017-Jun-16 00:30N 51°30' W 002°43'0 0.0
2017-Jun-16 00:00N 51°30' W 002°43'0 0.0
2017-Jun-15 23:30N 51°30' W 002°43'0 0.0
2017-Jun-15 23:00N 51°30' W 002°43'0 0.0
2017-Jun-15 22:31N 51°30' W 002°43'0 0.0
2017-Jun-15 22:00N 51°30' W 002°43'0 0.0
2017-Jun-15 21:30N 51°30' W 002°43'0 0.0
2017-Jun-15 21:00N 51°30' W 002°43'0 0.0
2017-Jun-15 20:30N 51°30' W 002°43'0 0.0
2017-Jun-15 20:00N 51°30' W 002°43'0 0.0
2017-Jun-15 19:30N 51°30' W 002°43'0 0.0
2017-Jun-15 19:00N 51°30' W 002°43'0 0.0
2017-Jun-15 18:30N 51°30' W 002°43'0 0.0
2017-Jun-15 18:00N 51°30' W 002°43'0 0.0
2017-Jun-15 17:30N 51°30' W 002°43'0 0.0
2017-Jun-15 17:00N 51°30' W 002°43'0 0.0
2017-Jun-15 16:30N 51°30' W 002°43'0 0.0
2017-Jun-15 16:00N 51°30' W 002°43'0 0.0
2017-Jun-15 15:30N 51°30' W 002°43'0 0.0
2017-Jun-15 15:00N 51°30' W 002°43'0 0.0
2017-Jun-15 14:30N 51°30' W 002°43'0 0.0
2017-Jun-15 13:30N 51°30' W 002°43'0 0.0
2017-Jun-15 12:57N 51°30' W 002°43'0 0.0
2017-Jun-15 12:30N 51°30' W 002°43'0 0.0
2017-Jun-15 12:00N 51°30' W 002°43'0 0.0
2017-Jun-15 11:30N 51°30' W 002°43'0 0.0
2017-Jun-15 11:00N 51°30' W 002°43'0 0.4
2017-Jun-15 10:30N 51°30' W 002°43'0 0.6
2017-Jun-15 10:00N 51°30' W 002°44'2 4.3
2017-Jun-15 09:30N 51°30' W 002°47'611.2
2017-Jun-15 09:01N 51°28' W 002°55'816.8
2017-Jun-15 08:31N 51°22' W 003°06'814.4
2017-Jun-15 07:58N 51°21' W 003°18'511.0
2017-Jun-15 07:30N 51°21' W 003°26'2512.3
2017-Jun-15 05:26N 51°17' W 004°06'4 9.4
2017-Jun-15 05:00N 51°17' W 004°13'5 9.7
2017-Jun-15 04:30N 51°14' W 004°20'5 9.6
2017-Jun-15 04:01N 51°11' W 004°25'510.3
2017-Jun-15 03:30N 51°08' W 004°31'5 9.2
2017-Jun-15 03:00N 51°04' W 004°37'3 6.7
2017-Jun-15 02:30N 51°02' W 004°41'3 5.5
2017-Jun-15 02:01N 51°01' W 004°44'3 5.8
2017-Jun-15 01:31N 51°02' W 004°48'3 6.1
2017-Jun-15 01:01N 51°04' W 004°51'3 6.0
2017-Jun-15 00:30N 51°07' W 004°53'3 6.0
2017-Jun-15 00:01N 51°10' W 004°53'3 6.0
2017-Jun-14 23:30N 51°13' W 004°53'3 5.8
2017-Jun-14 23:01N 51°16' W 004°53'3 5.8
2017-Jun-14 22:30N 51°19' W 004°51'3 5.9
2017-Jun-14 22:01N 51°21' W 004°48'3 5.9
2017-Jun-14 21:30N 51°22' W 004°43'3 5.9
2017-Jun-14 21:00N 51°22' W 004°39'3 5.3
2017-Jun-14 20:21N 51°22' W 004°33'2 4.9
2017-Jun-14 19:56N 51°22' W 004°30'2 4.9
2017-Jun-14 19:30N 51°20' W 004°28'3 6.2
2017-Jun-14 19:00N 51°17' W 004°28'3 6.6
2017-Jun-14 18:31N 51°14' W 004°28'3 6.8
2017-Jun-14 18:00N 51°10' W 004°29'4 7.2
2017-Jun-14 17:30N 51°07' W 004°32'4 7.4
2017-Jun-14 17:01N 51°04' W 004°36'4 7.1
2017-Jun-14 16:30N 51°02' W 004°40'3 6.6
2017-Jun-14 16:01N 51°00' W 004°44'3 6.1
2017-Jun-14 15:30N 50°58' W 004°48'3 5.9
2017-Jun-14 15:01N 50°56' W 004°51'6 5.8
2017-Jun-14 14:00N 50°52' W 004°58'713.8
2017-Jun-14 13:30N 50°48' W 005°06'714.8
2017-Jun-14 13:01N 50°43' W 005°15'714.8
2017-Jun-14 12:30N 50°38' W 005°24'4 7.6
2017-Jun-14 12:00N 50°36' W 005°29'3 5.4
2017-Jun-14 11:31N 50°34' W 005°32'3 5.5
2017-Jun-14 11:01N 50°32' W 005°35'3 5.6
2017-Jun-14 10:30N 50°31' W 005°39'4 8.7
2017-Jun-14 10:01N 50°28' W 005°44'917.9
2017-Jun-14 09:31N 50°21' W 005°54'1020.3
2017-Jun-14 09:00N 50°11' W 005°53'1320.3
2017-Jun-14 08:21N 49°58' W 005°54'820.1
2017-Jun-14 07:58N 49°51' W 005°58'919.4
2017-Jun-14 07:31N 49°42' W 006°04'918.0
2017-Jun-14 07:01N 49°34' W 006°08'816.4
2017-Jun-14 06:29N 49°26' W 006°12'816.5
2017-Jun-14 06:00N 49°18' W 006°17'816.7
2017-Jun-14 05:30N 49°11' W 006°21'816.8
2017-Jun-14 05:00N 49°03' W 006°26'816.9
2017-Jun-14 04:31N 48°55' W 006°31'816.8
2017-Jun-14 04:00N 48°47' W 006°36'1216.8
2017-Jun-14 03:19N 48°36' W 006°42'616.8
2017-Jun-14 02:59N 48°31' W 006°45'816.6
2017-Jun-14 02:30N 48°24' W 006°50'816.2
2017-Jun-14 02:00N 48°16' W 006°54'816.2
2017-Jun-14 01:31N 48°09' W 006°58'815.6
2017-Jun-14 01:00N 48°02' W 007°03'815.5
2017-Jun-14 00:30N 47°54' W 007°07'815.5
2017-Jun-14 00:00N 47°47' W 007°12'  
Track history (hours):
 
Tides and Currents Weather Stations Pressure Air Temp Water Temp Dewpoint Dewpoint Depression Visibility Wind Speed Wind Dir Waves Ship Positions

Oberon

Last reported at 2017-Jun-23 11:28 UTC. Time now 2017-Jun-23 11:51 UTC.
Position N 52°18' E 003°08'.

Length 232 m; draft 8.6 m.

Type: Cargo ship. MMSI: 266283000.

Date/timePositionNaut miles runAvg speedWind from/ knotsBaromVisibWave heightAir tempDewpointWater temp
2017-Jun-23 11:28N 52°18' E 003°08'510.8
2017-Jun-23 11:00N 52°22' E 003°13'510.4
2017-Jun-23 10:30N 52°27' E 003°18'510.7
2017-Jun-23 10:00N 52°31' E 003°23'611.0
2017-Jun-23 09:30N 52°35' E 003°28'611.1
2017-Jun-23 09:00N 52°40' E 003°34'611.3
2017-Jun-23 08:30N 52°44' E 003°40'510.6
2017-Jun-23 08:00N 52°48' E 003°46'5 9.5
2017-Jun-23 07:30N 52°52' E 003°51'5 9.3
2017-Jun-23 07:00N 52°55' E 003°56'510.2
2017-Jun-23 06:30N 52°59' E 004°02'713.3
2017-Jun-23 06:00N 53°03' E 004°10'612.9
2017-Jun-23 05:30N 53°08' E 004°18'612.4
2017-Jun-23 05:00N 53°12' E 004°25'612.4
2017-Jun-23 04:30N 53°18' E 004°29'912.4
2017-Jun-23 03:47N 53°26' E 004°34'412.3
2017-Jun-23 03:27N 53°30' E 004°36'3713.4
2017-Jun-23 00:40N 54°05' E 004°60'2813.7
2017-Jun-22 22:37N 54°29' E 005°24'213.5
2017-Jun-22 22:29N 54°30' E 005°26'713.5
2017-Jun-22 22:00N 54°36' E 005°31'713.5
2017-Jun-22 21:29N 54°42' E 005°37'613.5
2017-Jun-22 21:00N 54°48' E 005°43'713.5
2017-Jun-22 20:30N 54°54' E 005°48'713.5
2017-Jun-22 20:00N 54°59' E 005°54'713.3
2017-Jun-22 19:30N 55°05' E 005°60'713.3
2017-Jun-22 18:59N 55°11' E 006°05'713.0
2017-Jun-22 18:29N 55°17' E 006°11'713.2
2017-Jun-22 17:59N 55°23' E 006°17'713.1
2017-Jun-22 17:29N 55°28' E 006°23'613.1
2017-Jun-22 17:00N 55°34' E 006°28'713.1
2017-Jun-22 16:30N 55°40' E 006°33'713.0
2017-Jun-22 16:00N 55°46' E 006°38'713.0
2017-Jun-22 15:29N 55°51' E 006°45'612.8
2017-Jun-22 14:59N 55°57' E 006°51'1312.8
2017-Jun-22 14:00N 56°08' E 007°02'613.2
2017-Jun-22 13:30N 56°13' E 007°07'713.2
2017-Jun-22 13:00N 56°19' E 007°13'713.2
2017-Jun-22 12:29N 56°25' E 007°19'713.2
2017-Jun-22 11:59N 56°31' E 007°25'713.5
2017-Jun-22 11:29N 56°37' E 007°31'713.7
2017-Jun-22 10:58N 56°43' E 007°37'713.8
2017-Jun-22 10:29N 56°49' E 007°43'5814.4
2017-Jun-22 06:25N 57°33' E 008°53'715.0
2017-Jun-22 05:59N 57°35' E 009°04'714.6
2017-Jun-22 05:30N 57°39' E 009°16'714.6
2017-Jun-22 05:00N 57°43' E 009°27'914.6
2017-Jun-22 04:25N 57°46' E 009°42'714.8
2017-Jun-22 03:58N 57°48' E 009°54'714.5
2017-Jun-22 03:29N 57°50' E 010°07'714.0
2017-Jun-22 03:00N 57°50' E 010°20'713.8
2017-Jun-22 02:30N 57°50' E 010°32'713.0
2017-Jun-22 01:59N 57°48' E 010°45'714.0
2017-Jun-22 01:29N 57°44' E 010°55'714.7
2017-Jun-22 01:00N 57°39' E 011°04'714.6
2017-Jun-22 00:30N 57°34' E 011°15'714.6
2017-Jun-22 00:00N 57°29' E 011°25'714.4
2017-Jun-21 23:30N 57°23' E 011°31'715.0
2017-Jun-21 23:00N 57°16' E 011°36'815.1
2017-Jun-21 22:28N 57°08' E 011°41'714.8
2017-Jun-21 21:59N 57°01' E 011°45'1315.2
2017-Jun-21 21:09N 56°49' E 011°51'514.6
2017-Jun-21 20:47N 56°44' E 011°54'514.3
2017-Jun-21 20:26N 56°39' E 011°57'614.5
2017-Jun-21 19:59N 56°33' E 012°00'914.7
2017-Jun-21 19:24N 56°25' E 012°03'614.3
2017-Jun-21 19:00N 56°19' E 012°06'815.1
2017-Jun-21 18:30N 56°14' E 012°16'815.8
2017-Jun-21 18:00N 56°09' E 012°27'917.2
2017-Jun-21 17:30N 56°04' E 012°39'815.2
2017-Jun-21 17:00N 55°57' E 012°44'816.3
2017-Jun-21 16:31N 55°49' E 012°47'815.9
2017-Jun-21 16:00N 55°42' E 012°54'510.9
2017-Jun-21 15:30N 55°37' E 012°59'0 0.7
2017-Jun-21 15:00N 55°37' E 012°60'0 0.0
2017-Jun-21 13:59N 55°37' E 012°60'0 0.0
2017-Jun-21 13:29N 55°37' E 012°60'0 0.0
2017-Jun-21 12:59N 55°37' E 012°60'0 0.0
2017-Jun-21 12:29N 55°37' E 012°60'0 0.0
2017-Jun-21 11:59N 55°37' E 012°60'0 0.0
2017-Jun-21 11:29N 55°37' E 012°60'0 0.0
2017-Jun-21 10:59N 55°37' E 012°60'0 0.0
2017-Jun-21 10:29N 55°37' E 012°60'0 0.0
2017-Jun-21 09:59N 55°37' E 012°60'0 0.0
2017-Jun-21 09:29N 55°37' E 012°60'0 0.0
2017-Jun-21 08:59N 55°37' E 012°60'0 0.0
2017-Jun-21 08:29N 55°37' E 012°60'0 0.0
2017-Jun-21 07:59N 55°37' E 012°60'0 0.0
2017-Jun-21 07:29N 55°37' E 012°60'0 0.0
2017-Jun-21 06:59N 55°37' E 012°60'0 0.0
2017-Jun-21 06:29N 55°37' E 012°60'0 0.0
2017-Jun-21 05:59N 55°37' E 012°60'0 0.0
2017-Jun-21 05:29N 55°37' E 012°60'0 0.0
2017-Jun-21 04:59N 55°37' E 012°60'0 0.0
2017-Jun-21 04:29N 55°37' E 012°60'0 0.0
2017-Jun-21 03:59N 55°37' E 012°60'0 0.0
2017-Jun-21 03:29N 55°37' E 012°60'0 0.0
2017-Jun-21 02:59N 55°37' E 012°60'0 0.0
2017-Jun-21 02:29N 55°37' E 012°60'0 0.0
2017-Jun-21 01:59N 55°37' E 012°60'0 0.0
2017-Jun-21 01:29N 55°37' E 012°60'0 0.0
2017-Jun-21 00:59N 55°37' E 012°60'0 0.0
2017-Jun-21 00:29N 55°37' E 012°60'0 0.0
2017-Jun-20 23:59N 55°37' E 012°60'0 0.0
2017-Jun-20 23:29N 55°37' E 012°60'0 0.0
2017-Jun-20 22:59N 55°37' E 012°60'0 0.0
2017-Jun-20 22:29N 55°37' E 012°60'0 0.0
2017-Jun-20 21:59N 55°37' E 012°60'0 0.0
2017-Jun-20 21:29N 55°37' E 012°60'0 0.0
2017-Jun-20 20:59N 55°37' E 012°60'0 0.0
2017-Jun-20 20:29N 55°37' E 012°60'0 0.0
2017-Jun-20 19:59N 55°37' E 012°60'0 0.0
2017-Jun-20 19:29N 55°37' E 012°60'0 0.0
2017-Jun-20 18:59N 55°37' E 012°60'0 0.0
2017-Jun-20 18:29N 55°37' E 012°60'0 0.0
2017-Jun-20 17:59N 55°37' E 012°60'0 0.0
2017-Jun-20 17:29N 55°37' E 012°60'0 0.0
2017-Jun-20 16:59N 55°37' E 012°60'0 0.0
2017-Jun-20 16:29N 55°37' E 012°60'0 0.0
2017-Jun-20 15:59N 55°37' E 012°60'0 0.0
2017-Jun-20 15:29N 55°37' E 012°60'0 0.0
2017-Jun-20 14:59N 55°37' E 012°60'0 0.0
2017-Jun-20 14:29N 55°37' E 012°60'0 0.0
2017-Jun-20 13:29N 55°37' E 012°60'0 0.0
2017-Jun-20 12:59N 55°37' E 012°60'0 0.0
2017-Jun-20 12:30N 55°37' E 012°60'2 3.8
2017-Jun-20 12:00N 55°39' E 012°57'510.9
2017-Jun-20 11:30N 55°44' E 012°53'713.1
2017-Jun-20 11:00N 55°49' E 012°46'714.2
2017-Jun-20 10:30N 55°54' E 012°39'815.6
2017-Jun-20 10:00N 56°02' E 012°39'816.7
2017-Jun-20 09:30N 56°08' E 012°28'917.3
2017-Jun-20 09:00N 56°13' E 012°15'817.0
2017-Jun-20 08:30N 56°18' E 012°03'917.8
2017-Jun-20 08:00N 56°27' E 011°60'2117.8
2017-Jun-20 06:49N 56°47' E 011°50'717.4
2017-Jun-20 06:27N 56°53' E 011°46'613.8
2017-Jun-20 05:59N 56°60' E 011°48'6 4.0
2017-Jun-20 04:34N 57°04' E 011°40'119.4
2017-Jun-20 04:30N 57°05' E 011°39'917.5
2017-Jun-20 04:00N 57°13' E 011°34'714.5
2017-Jun-20 03:30N 57°20' E 011°29'714.4
2017-Jun-20 03:00N 57°26' E 011°23'612.4
2017-Jun-20 02:30N 57°31' E 011°15'714.5
2017-Jun-20 02:00N 57°35' E 011°05'714.7
2017-Jun-20 01:30N 57°40' E 010°55'814.7
2017-Jun-20 00:58N 57°47' E 010°46'713.8
2017-Jun-20 00:29N 57°48' E 010°33'714.7
2017-Jun-20 00:00N 57°48' E 010°20'815.5
2017-Jun-19 23:29N 57°46' E 010°05'715.4
2017-Jun-19 23:00N 57°44' E 009°52'815.5
2017-Jun-19 22:29N 57°42' E 009°38'715.3
2017-Jun-19 22:00N 57°39' E 009°25'815.5
2017-Jun-19 21:30N 57°37' E 009°11'815.4
2017-Jun-19 20:57N 57°33' E 008°57'1515.1
2017-Jun-19 19:58N 57°25' E 008°34'715.0
2017-Jun-19 19:30N 57°21' E 008°23'814.8
2017-Jun-19 18:59N 57°16' E 008°12'6514.6
2017-Jun-19 14:31N 56°19' E 007°15'2014.9
2017-Jun-19 13:09N 56°01' E 006°57'514.9
2017-Jun-19 12:49N 55°57' E 006°53'514.8
2017-Jun-19 12:29N 55°52' E 006°48'714.8
2017-Jun-19 12:01N 55°46' E 006°42'714.7
2017-Jun-19 11:31N 55°40' E 006°37'714.7
2017-Jun-19 11:00N 55°33' E 006°31'714.7
2017-Jun-19 10:31N 55°27' E 006°25'815.0
2017-Jun-19 09:59N 55°20' E 006°19'714.8
2017-Jun-19 09:29N 55°13' E 006°12'714.7
2017-Jun-19 09:00N 55°07' E 006°05'814.8
2017-Jun-19 08:30N 55°01' E 005°59'814.8
2017-Jun-19 07:59N 54°54' E 005°53'714.7
2017-Jun-19 07:30N 54°48' E 005°47'4513.5
2017-Jun-19 04:11N 54°08' E 005°10'517.4
2017-Jun-19 03:52N 54°04' E 005°07'3517.4
2017-Jun-19 01:53N 53°31' E 004°46'717.9
2017-Jun-19 01:30N 53°25' E 004°41'918.2
2017-Jun-19 01:00N 53°17' E 004°35'918.5
2017-Jun-19 00:30N 53°08' E 004°28'918.2
2017-Jun-19 00:00N 53°01' E 004°21'918.3
2017-Jun-18 23:30N 52°53' E 004°13'917.9
2017-Jun-18 23:00N 52°45' E 004°05'917.8
2017-Jun-18 22:30N 52°39' E 003°55'917.8
2017-Jun-18 22:00N 52°32' E 003°45'917.9
2017-Jun-18 21:30N 52°26' E 003°35'918.1
2017-Jun-18 21:00N 52°19' E 003°24'918.2
2017-Jun-18 20:30N 52°12' E 003°14'1018.2
2017-Jun-18 19:56N 52°05' E 003°03'918.1
2017-Jun-18 19:28N 51°58' E 002°54'817.9
2017-Jun-18 19:00N 51°51' E 002°47'917.8
2017-Jun-18 18:30N 51°43' E 002°41'816.5
2017-Jun-18 18:00N 51°35' E 002°43'713.4
2017-Jun-18 17:30N 51°29' E 002°42'5 9.3
2017-Jun-18 17:00N 51°24' E 002°44'815.8
2017-Jun-18 16:30N 51°25' E 002°57'816.6
2017-Jun-18 16:00N 51°23' E 003°10'4 7.3
2017-Jun-18 15:31N 51°20' E 003°13'0 0.0
2017-Jun-18 15:00N 51°20' E 003°13'2 2.1
2017-Jun-18 14:00N 51°18' E 003°14'0 0.0
2017-Jun-18 13:29N 51°18' E 003°14'0 0.0
2017-Jun-18 12:59N 51°18' E 003°14'0 0.0
2017-Jun-18 12:29N 51°18' E 003°14'0 0.0
2017-Jun-18 11:59N 51°18' E 003°14'0 0.0
2017-Jun-18 11:29N 51°18' E 003°14'0 0.0
2017-Jun-18 10:59N 51°18' E 003°14'0 0.0
2017-Jun-18 10:29N 51°18' E 003°14'0 0.0
2017-Jun-18 09:59N 51°18' E 003°14'0 0.0
2017-Jun-18 09:29N 51°18' E 003°14'0 0.0
2017-Jun-18 08:59N 51°18' E 003°14'0 0.0
2017-Jun-18 08:29N 51°18' E 003°14'0 0.0
2017-Jun-18 07:59N 51°18' E 003°14'0 0.0
2017-Jun-18 07:29N 51°18' E 003°14'0 0.0
2017-Jun-18 06:59N 51°18' E 003°14'0 0.0
2017-Jun-18 06:29N 51°18' E 003°14'0 0.0
2017-Jun-18 05:59N 51°18' E 003°14'0 0.0
2017-Jun-18 05:29N 51°18' E 003°14'0 0.0
2017-Jun-18 04:59N 51°18' E 003°14'0 0.0
2017-Jun-18 04:29N 51°18' E 003°14'0 0.0
2017-Jun-18 03:59N 51°18' E 003°14'0 0.0
2017-Jun-18 03:29N 51°18' E 003°14'0 0.0
2017-Jun-18 02:59N 51°18' E 003°14'0 0.0
2017-Jun-18 02:30N 51°18' E 003°14'1 2.3
2017-Jun-18 02:00N 51°19' E 003°13'1 2.0
2017-Jun-18 01:30N 51°20' E 003°13'0 0.0
2017-Jun-18 01:00N 51°20' E 003°13'1 2.3
2017-Jun-18 00:30N 51°21' E 003°12'3 5.6
2017-Jun-18 00:00N 51°23' E 003°09'3 6.6
2017-Jun-17 23:30N 51°24' E 003°04'5 9.1
2017-Jun-17 23:00N 51°23' E 002°57'815.1
2017-Jun-17 22:30N 51°22' E 002°45'713.4
2017-Jun-17 22:01N 51°22' E 002°35'4 7.5
2017-Jun-17 21:30N 51°22' E 002°29'1 2.8
2017-Jun-17 21:00N 51°21' E 002°27'2 4.1
2017-Jun-17 20:30N 51°20' E 002°24'1 2.8
2017-Jun-17 20:00N 51°20' E 002°22'2 4.4
2017-Jun-17 19:31N 51°18' E 002°19'3 6.9
2017-Jun-17 19:00N 51°16' E 002°15'4 7.0
2017-Jun-17 18:30N 51°14' E 002°10'3 7.0
2017-Jun-17 18:00N 51°12' E 002°05'3 6.6
2017-Jun-17 17:30N 51°11' E 002°01'3 6.7
2017-Jun-17 17:00N 51°09' E 001°56'3 6.7
2017-Jun-17 16:30N 51°08' E 001°51'4 7.3
2017-Jun-17 16:00N 51°06' E 001°46'714.7
2017-Jun-17 15:30N 51°01' E 001°38'816.6
2017-Jun-17 15:01N 50°55' E 001°28'815.6
2017-Jun-17 14:30N 50°48' E 001°24'3015.8
2017-Jun-17 12:37N 50°28' E 000°49'216.8
2017-Jun-17 12:30N 50°27' E 000°46'816.8
2017-Jun-17 12:00N 50°25' E 000°34'816.7
2017-Jun-17 11:30N 50°22' E 000°21'816.5
2017-Jun-17 11:00N 50°20' E 000°09'816.1
2017-Jun-17 10:30N 50°18' W 000°04'815.9
2017-Jun-17 10:01N 50°16' W 000°16'815.6
2017-Jun-17 09:30N 50°15' W 000°27'815.3
2017-Jun-17 09:01N 50°13' W 000°39'715.0
2017-Jun-17 08:30N 50°11' W 000°50'714.6
2017-Jun-17 08:01N 50°10' W 001°02'714.3
2017-Jun-17 07:31N 50°08' W 001°12'714.1
2017-Jun-17 07:00N 50°06' W 001°23'714.0
2017-Jun-17 06:31N 50°05' W 001°34'713.8
2017-Jun-17 06:01N 50°03' W 001°44'713.8
2017-Jun-17 05:30N 50°02' W 001°55'714.3
2017-Jun-17 05:00N 49°59' W 002°05'714.9
2017-Jun-17 04:30N 49°57' W 002°16'815.4
2017-Jun-17 04:00N 49°55' W 002°28'815.9
2017-Jun-17 03:29N 49°51' W 002°39'816.1
2017-Jun-17 03:00N 49°49' W 002°50'816.1
2017-Jun-17 02:30N 49°49' W 003°03'816.4
2017-Jun-17 02:00N 49°49' W 003°16'816.4
2017-Jun-17 01:30N 49°49' W 003°28'816.5
2017-Jun-17 01:00N 49°50' W 003°41'816.6
2017-Jun-17 00:30N 49°50' W 003°54'816.6
2017-Jun-17 00:00N 49°50' W 004°07'816.7
2017-Jun-16 23:30N 49°51' W 004°20'816.7
2017-Jun-16 23:00N 49°51' W 004°33'816.8
2017-Jun-16 22:30N 49°51' W 004°46'816.7
2017-Jun-16 22:00N 49°51' W 004°59'816.7
2017-Jun-16 21:30N 49°52' W 005°12'816.7
2017-Jun-16 21:00N 49°52' W 005°24'816.5
2017-Jun-16 20:30N 49°52' W 005°37'816.2
2017-Jun-16 20:00N 49°54' W 005°50'714.3
2017-Jun-16 19:30N 49°56' W 006°00'815.4
2017-Jun-16 19:00N 50°04' W 006°00'815.3
2017-Jun-16 18:30N 50°12' W 006°00'815.5
2017-Jun-16 18:00N 50°19' W 006°00'714.1
2017-Jun-16 17:30N 50°25' W 005°54'815.2
2017-Jun-16 17:00N 50°30' W 005°45'815.5
2017-Jun-16 16:30N 50°35' W 005°35'815.6
2017-Jun-16 16:00N 50°40' W 005°26'815.7
2017-Jun-16 15:30N 50°45' W 005°16'815.8
2017-Jun-16 15:00N 50°50' W 005°07'816.0
2017-Jun-16 14:30N 50°55' W 004°57'1616.1
2017-Jun-16 13:30N 51°05' W 004°37'816.8
2017-Jun-16 13:00N 51°11' W 004°27'917.1
2017-Jun-16 12:30N 51°16' W 004°16'3515.7
2017-Jun-16 10:15N 51°20' W 003°20'413.9
2017-Jun-16 09:59N 51°21' W 003°14'4 9.5
2017-Jun-16 09:30N 51°22' W 003°07'713.7
2017-Jun-16 09:01N 51°27' W 002°60'713.7
2017-Jun-16 08:30N 51°29' W 002°49'4 7.4
2017-Jun-16 08:00N 51°30' W 002°44'0 0.0
2017-Jun-16 07:30N 51°30' W 002°44'0 0.9
2017-Jun-16 07:00N 51°30' W 002°43'0 0.0
2017-Jun-16 06:30N 51°30' W 002°43'0 0.0
2017-Jun-16 06:00N 51°30' W 002°43'0 0.0
2017-Jun-16 05:31N 51°30' W 002°43'0 0.0
2017-Jun-16 05:01N 51°30' W 002°43'0 0.0
2017-Jun-16 04:31N 51°30' W 002°43'0 0.0
2017-Jun-16 04:01N 51°30' W 002°43'0 0.0
2017-Jun-16 03:31N 51°30' W 002°43'0 0.0
2017-Jun-16 03:01N 51°30' W 002°43'0 0.0
2017-Jun-16 02:31N 51°30' W 002°43'0 0.0
2017-Jun-16 02:01N 51°30' W 002°43'0 0.0
2017-Jun-16 01:31N 51°30' W 002°43'0 0.0
2017-Jun-16 01:01N 51°30' W 002°43'0 0.0
2017-Jun-16 00:30N 51°30' W 002°43'0 0.0
2017-Jun-16 00:00N 51°30' W 002°43'0 0.0
2017-Jun-15 23:30N 51°30' W 002°43'0 0.0
2017-Jun-15 23:00N 51°30' W 002°43'0 0.0
2017-Jun-15 22:31N 51°30' W 002°43'0 0.0
2017-Jun-15 22:00N 51°30' W 002°43'0 0.0
2017-Jun-15 21:30N 51°30' W 002°43'0 0.0
2017-Jun-15 21:00N 51°30' W 002°43'0 0.0
2017-Jun-15 20:30N 51°30' W 002°43'0 0.0
2017-Jun-15 20:00N 51°30' W 002°43'0 0.0
2017-Jun-15 19:30N 51°30' W 002°43'0 0.0
2017-Jun-15 19:00N 51°30' W 002°43'0 0.0
2017-Jun-15 18:30N 51°30' W 002°43'0 0.0
2017-Jun-15 18:00N 51°30' W 002°43'0 0.0
2017-Jun-15 17:30N 51°30' W 002°43'0 0.0
2017-Jun-15 17:00N 51°30' W 002°43'0 0.0
2017-Jun-15 16:30N 51°30' W 002°43'0 0.0
2017-Jun-15 16:00N 51°30' W 002°43'0 0.0
2017-Jun-15 15:30N 51°30' W 002°43'0 0.0
2017-Jun-15 15:00N 51°30' W 002°43'0 0.0
2017-Jun-15 14:30N 51°30' W 002°43'0 0.0
2017-Jun-15 13:30N 51°30' W 002°43'0 0.0
2017-Jun-15 12:57N 51°30' W 002°43'0 0.0
2017-Jun-15 12:30N 51°30' W 002°43'0 0.0
2017-Jun-15 12:00N 51°30' W 002°43'0 0.0
2017-Jun-15 11:30N 51°30' W 002°43'0 0.0
2017-Jun-15 11:00N 51°30' W 002°43'0 0.4
2017-Jun-15 10:30N 51°30' W 002°43'0 0.6
2017-Jun-15 10:00N 51°30' W 002°44'2 4.3
2017-Jun-15 09:30N 51°30' W 002°47'611.2
2017-Jun-15 09:01N 51°28' W 002°55'816.8
2017-Jun-15 08:31N 51°22' W 003°06'814.4
2017-Jun-15 07:58N 51°21' W 003°18'511.0
2017-Jun-15 07:30N 51°21' W 003°26'2512.3
2017-Jun-15 05:26N 51°17' W 004°06'4 9.4
2017-Jun-15 05:00N 51°17' W 004°13'5 9.7
2017-Jun-15 04:30N 51°14' W 004°20'5 9.6
2017-Jun-15 04:01N 51°11' W 004°25'510.3
2017-Jun-15 03:30N 51°08' W 004°31'5 9.2
2017-Jun-15 03:00N 51°04' W 004°37'3 6.7
2017-Jun-15 02:30N 51°02' W 004°41'3 5.5
2017-Jun-15 02:01N 51°01' W 004°44'3 5.8
2017-Jun-15 01:31N 51°02' W 004°48'3 6.1
2017-Jun-15 01:01N 51°04' W 004°51'3 6.0
2017-Jun-15 00:30N 51°07' W 004°53'3 6.0
2017-Jun-15 00:01N 51°10' W 004°53'3 6.0
2017-Jun-14 23:30N 51°13' W 004°53'3 5.8
2017-Jun-14 23:01N 51°16' W 004°53'3 5.8
2017-Jun-14 22:30N 51°19' W 004°51'3 5.9
2017-Jun-14 22:01N 51°21' W 004°48'3 5.9
2017-Jun-14 21:30N 51°22' W 004°43'3 5.9
2017-Jun-14 21:00N 51°22' W 004°39'3 5.3
2017-Jun-14 20:21N 51°22' W 004°33'2 4.9
2017-Jun-14 19:56N 51°22' W 004°30'2 4.9
2017-Jun-14 19:30N 51°20' W 004°28'3 6.2
2017-Jun-14 19:00N 51°17' W 004°28'3 6.6
2017-Jun-14 18:31N 51°14' W 004°28'3 6.8
2017-Jun-14 18:00N 51°10' W 004°29'4 7.2
2017-Jun-14 17:30N 51°07' W 004°32'4 7.4
2017-Jun-14 17:01N 51°04' W 004°36'4 7.1
2017-Jun-14 16:30N 51°02' W 004°40'3 6.6
2017-Jun-14 16:01N 51°00' W 004°44'3 6.1
2017-Jun-14 15:30N 50°58' W 004°48'3 5.9
2017-Jun-14 15:01N 50°56' W 004°51'6 5.8
2017-Jun-14 14:00N 50°52' W 004°58'713.8
2017-Jun-14 13:30N 50°48' W 005°06'714.8
2017-Jun-14 13:01N 50°43' W 005°15'714.8
2017-Jun-14 12:30N 50°38' W 005°24'4 7.6
2017-Jun-14 12:00N 50°36' W 005°29'3 5.4
2017-Jun-14 11:31N 50°34' W 005°32'3 5.5
2017-Jun-14 11:01N 50°32' W 005°35'3 5.6
2017-Jun-14 10:30N 50°31' W 005°39'4 8.7
2017-Jun-14 10:01N 50°28' W 005°44'917.9
2017-Jun-14 09:31N 50°21' W 005°54'1020.3
2017-Jun-14 09:00N 50°11' W 005°53'1320.3
2017-Jun-14 08:21N 49°58' W 005°54'820.1
2017-Jun-14 07:58N 49°51' W 005°58'919.4
2017-Jun-14 07:31N 49°42' W 006°04'918.0
2017-Jun-14 07:01N 49°34' W 006°08'816.4
2017-Jun-14 06:29N 49°26' W 006°12'816.5
2017-Jun-14 06:00N 49°18' W 006°17'816.7
2017-Jun-14 05:30N 49°11' W 006°21'816.8
2017-Jun-14 05:00N 49°03' W 006°26'816.9
2017-Jun-14 04:31N 48°55' W 006°31'816.8
2017-Jun-14 04:00N 48°47' W 006°36'1216.8
2017-Jun-14 03:19N 48°36' W 006°42'616.8
2017-Jun-14 02:59N 48°31' W 006°45'816.6
2017-Jun-14 02:30N 48°24' W 006°50'816.2
2017-Jun-14 02:00N 48°16' W 006°54'816.2
2017-Jun-14 01:31N 48°09' W 006°58'815.6
2017-Jun-14 01:00N 48°02' W 007°03'815.5
2017-Jun-14 00:30N 47°54' W 007°07'815.5
2017-Jun-14 00:00N 47°47' W 007°12'  

Dump ship's entire track history